Time;durP1;ratioP1;P1;durP2;ratioP2;P2;SDS_P1;SDS_P2;PMS_P1;PMS_P2;Temp;Humidity;BMP_temperature;BMP_pressure;BME280_temperature;BME280_humidity;BME280_pressure;Samples;Min_cycle;Max_cycle;Signal;HPM_P1;HPM_P2
2021/11/21 00:01:21;;;;;;;22.10;15.83;;;7.90;99.90;;;8.49;100.00;99954.94;4993397;28;20262;-62
2021/11/21 00:03:50;;;;;;;19.93;15.27;;;7.90;99.90;;;8.44;100.00;99948.56;4993185;28;20738;-64
2021/11/21 00:06:18;;;;;;;21.43;15.63;;;7.80;99.90;;;8.56;100.00;99939.66;4993339;28;20234;-63
2021/11/21 00:08:47;;;;;;;20.47;16.17;;;7.80;99.90;;;8.49;100.00;99948.75;4992860;28;20710;-63
2021/11/21 00:11:17;;;;;;;20.67;16.00;;;7.80;99.90;;;8.41;100.00;99935.56;4993068;28;20282;-62
2021/11/21 00:13:48;;;;;;;21.63;15.73;;;7.80;99.90;;;8.69;100.00;99927.22;4992672;28;20261;-63
2021/11/21 00:16:16;;;;;;;22.53;16.23;;;7.80;99.90;;;8.65;100.00;99913.38;4993013;28;20196;-63
2021/11/21 00:18:46;;;;;;;21.77;15.93;;;7.80;99.90;;;8.79;100.00;99904.25;4992786;28;20199;-62
2021/11/21 00:21:15;;;;;;;22.10;16.07;;;7.80;99.90;;;8.59;100.00;99895.47;4992672;28;20243;-62
2021/11/21 00:23:43;;;;;;;23.40;16.87;;;7.80;99.90;;;8.72;100.00;99887.31;4992423;28;20204;-63
2021/11/21 00:26:12;;;;;;;20.63;15.50;;;7.80;99.90;;;8.63;100.00;99897.50;4993016;28;20293;-62
2021/11/21 00:28:40;;;;;;;21.33;16.10;;;7.80;99.90;;;8.55;100.00;99907.66;4993050;28;20290;-64
2021/11/21 00:31:08;;;;;;;22.93;15.93;;;7.80;99.90;;;8.51;100.00;99898.34;4992816;28;20204;-62
2021/11/21 00:33:37;;;;;;;25.47;16.27;;;7.80;99.90;;;8.47;100.00;99907.88;4992501;28;20291;-63
2021/11/21 00:36:07;;;;;;;22.60;16.47;;;7.70;99.90;;;8.41;100.00;99914.91;4992463;28;20200;-63
2021/11/21 00:38:35;;;;;;;24.93;16.93;;;7.80;99.90;;;8.84;100.00;99906.28;4992238;28;20207;-62
2021/11/21 00:41:05;;;;;;;22.47;16.20;;;7.80;99.90;;;8.80;100.00;99905.88;4992685;28;20606;-63
2021/11/21 00:43:34;;;;;;;21.80;15.87;;;7.90;99.90;;;8.87;100.00;99905.84;4992547;28;20204;-62
2021/11/21 00:46:03;;;;;;;22.00;15.97;;;7.90;99.90;;;8.93;100.00;99895.06;4992659;28;20594;-63
2021/11/21 00:48:31;;;;;;;22.30;16.30;;;8.00;99.90;;;8.80;100.00;99902.34;4991709;28;20207;-62
2021/11/21 00:51:02;;;;;;;20.40;15.40;;;8.00;99.90;;;8.86;100.00;99896.97;4992116;28;20226;-62
2021/11/21 00:53:32;;;;;;;21.20;15.67;;;8.00;99.90;;;8.81;100.00;99902.13;4991949;28;20235;-63
2021/11/21 00:56:04;;;;;;;23.10;16.83;;;8.00;99.90;;;8.86;100.00;99891.59;4992124;28;20191;-64
2021/11/21 00:58:34;;;;;;;21.27;15.67;;;8.00;99.90;;;9.07;100.00;99896.63;4992293;28;20199;-64
2021/11/21 01:01:04;;;;;;;21.30;15.10;;;8.10;99.90;;;9.04;100.00;99883.63;4991981;28;20238;-63
2021/11/21 01:03:33;;;;;;;20.43;15.53;;;8.10;99.90;;;8.84;100.00;99893.69;4992323;28;20222;-62
2021/11/21 01:06:02;;;;;;;21.93;15.90;;;8.00;99.90;;;8.60;100.00;99900.59;4991927;28;20270;-63
2021/11/21 01:08:32;;;;;;;22.60;16.27;;;8.00;99.90;;;8.71;100.00;99898.28;4991699;28;20798;-62
2021/11/21 01:11:05;;;;;;;22.00;15.57;;;7.90;99.90;;;8.63;100.00;99891.28;4991914;28;20452;-62
2021/11/21 01:13:35;;;;;;;21.60;15.93;;;7.90;99.90;;;8.61;100.00;99888.81;4991827;28;20270;-63
2021/11/21 01:16:05;;;;;;;20.87;15.20;;;7.80;99.90;;;8.66;100.00;99880.13;4992254;28;20211;-62
2021/11/21 01:18:34;;;;;;;20.27;15.57;;;7.90;99.90;;;8.60;100.00;99875.63;4992030;28;20245;-63
2021/11/21 01:21:02;;;;;;;23.00;15.33;;;7.80;99.90;;;8.72;100.00;99884.66;4992073;28;20628;-62
2021/11/21 01:23:32;;;;;;;20.77;14.37;;;7.80;99.90;;;8.69;100.00;99890.44;4991739;28;20215;-62
2021/11/21 01:26:00;;;;;;;21.17;15.33;;;7.80;99.90;;;8.56;100.00;99885.94;4991683;28;20210;-63
2021/11/21 01:28:29;;;;;;;20.57;15.67;;;7.80;99.90;;;8.36;100.00;99873.63;4991815;28;20243;-62
2021/11/21 01:30:58;;;;;;;22.80;15.53;;;7.70;99.90;;;8.35;100.00;99877.38;4991850;28;20199;-63
2021/11/21 01:33:26;;;;;;;20.17;15.37;;;7.70;99.90;;;8.30;100.00;99871.81;4991670;28;20310;-62
2021/11/21 01:35:55;;;;;;;20.67;15.37;;;7.70;99.90;;;8.38;100.00;99863.53;4991914;28;20440;-62
2021/11/21 01:38:24;;;;;;;19.30;15.10;;;7.70;99.90;;;8.44;100.00;99868.84;4991563;28;20290;-63
2021/11/21 01:40:54;;;;;;;20.20;14.73;;;7.70;99.90;;;8.65;100.00;99859.69;4991774;28;20294;-63
2021/11/21 01:43:22;;;;;;;18.40;14.13;;;7.70;99.90;;;8.67;100.00;99849.56;4991393;28;20737;-63
2021/11/21 01:45:51;;;;;;;19.93;14.70;;;7.80;99.90;;;8.59;100.00;99857.88;4991686;28;20307;-63
2021/11/21 01:48:19;;;;;;;22.40;17.07;;;7.80;99.90;;;8.70;100.00;99862.53;4991332;28;20570;-63
2021/11/21 01:50:48;;;;;;;18.90;14.37;;;7.80;99.90;;;8.73;100.00;99854.06;4991379;28;20275;-62
2021/11/21 01:53:17;;;;;;;20.47;14.93;;;7.80;99.90;;;8.76;100.00;99859.00;4991514;28;20313;-63
2021/11/21 01:55:47;;;;;;;20.57;14.63;;;7.80;99.90;;;8.70;100.00;99859.03;4991254;28;20327;-63
2021/11/21 01:58:17;;;;;;;19.60;15.13;;;7.80;99.90;;;8.79;100.00;99838.94;4991579;28;20278;-63
2021/11/21 02:00:49;;;;;;;19.17;14.20;;;7.90;99.90;;;8.86;100.00;99839.75;4991232;28;20198;-61
2021/11/21 02:03:18;;;;;;;18.63;14.40;;;7.90;99.90;;;8.61;100.00;99837.81;4991174;28;20635;-62
2021/11/21 02:05:49;;;;;;;20.73;15.73;;;7.90;99.90;;;8.79;100.00;99838.94;4991458;28;20204;-62
2021/11/21 02:08:17;;;;;;;19.50;14.90;;;7.90;99.90;;;8.70;100.00;99832.19;4991335;28;20203;-62
2021/11/21 02:10:46;;;;;;;19.30;14.17;;;7.90;99.90;;;8.65;100.00;99827.47;4991203;28;20633;-61
2021/11/21 02:13:16;;;;;;;19.63;15.03;;;7.80;99.90;;;8.73;100.00;99821.03;4993718;28;20203;-63
2021/11/21 02:15:45;;;;;;;19.47;14.70;;;7.80;99.90;;;8.67;100.00;99817.34;4995489;28;20215;-62
2021/11/21 02:18:14;;;;;;;19.43;14.53;;;7.90;99.90;;;8.78;100.00;99819.31;4995666;28;20211;-63
2021/11/21 02:20:50;;;;;;;19.50;14.93;;;7.90;99.90;;;8.72;100.00;99808.63;4995382;28;20238;-62
2021/11/21 02:23:19;;;;;;;18.43;14.70;;;7.90;99.90;;;8.79;100.00;99804.88;4994994;28;20199;-63
2021/11/21 02:25:48;;;;;;;21.97;16.23;;;7.90;99.90;;;8.96;100.00;99795.25;4995076;28;20649;-62
2021/11/21 02:28:16;;;;;;;21.03;16.00;;;7.90;99.90;;;8.71;100.00;99796.25;4995146;28;20290;-64
2021/11/21 02:30:46;;;;;;;21.03;15.40;;;7.90;99.90;;;8.68;100.00;99792.13;4994987;28;20200;-63
2021/11/21 02:33:18;;;;;;;22.27;16.57;;;7.90;99.90;;;8.64;100.00;99794.41;4994851;28;20203;-62
2021/11/21 02:35:52;;;;;;;19.17;14.83;;;7.90;99.90;;;8.62;100.00;99787.63;4994879;28;20219;-63
2021/11/21 02:38:23;;;;;;;21.17;15.57;;;7.90;99.90;;;8.61;100.00;99786.78;4994571;28;20192;-63
2021/11/21 02:40:54;;;;;;;23.93;16.30;;;7.90;99.90;;;8.89;100.00;99788.25;4994891;28;20184;-62
2021/11/21 02:43:23;;;;;;;20.93;15.63;;;7.90;99.90;;;8.84;100.00;99780.88;4995031;28;20321;-62
2021/11/21 02:45:55;;;;;;;21.03;15.57;;;7.90;99.90;;;8.91;100.00;99776.28;4994782;28;20286;-62
2021/11/21 02:48:28;;;;;;;22.77;15.13;;;7.90;99.90;;;8.81;100.00;99773.22;4994886;28;20662;-64
2021/11/21 02:51:00;;;;;;;23.53;15.73;;;7.90;99.90;;;8.81;100.00;99767.06;4994799;28;20188;-63
2021/11/21 02:53:33;;;;;;;22.77;16.50;;;7.90;99.90;;;8.69;100.00;99771.47;4994576;28;20211;-61
2021/11/21 02:56:06;;;;;;;20.23;15.60;;;7.90;99.90;;;8.60;100.00;99768.22;4994795;28;20191;-63
2021/11/21 02:58:36;;;;;;;20.13;15.00;;;7.80;99.90;;;8.87;100.00;99756.25;4994472;28;20292;-63
2021/11/21 03:01:10;;;;;;;20.23;15.33;;;7.90;99.90;;;8.70;100.00;99754.31;4994442;28;20692;-62
2021/11/21 03:03:38;;;;;;;18.80;14.60;;;7.90;99.90;;;8.85;100.00;99739.53;4994475;28;20195;-63
2021/11/21 03:06:08;;;;;;;19.37;14.40;;;7.90;99.90;;;9.02;100.00;99743.31;4994634;28;20214;-62
2021/11/21 03:08:36;;;;;;;17.80;14.17;;;8.00;99.90;;;9.04;100.00;99746.63;4994188;28;20633;-63
2021/11/21 03:11:26;;;;;;;18.30;14.57;;;8.00;99.90;;;8.88;100.00;99743.66;4994403;28;20286;-63
2021/11/21 03:13:55;;;;;;;20.53;15.13;;;8.00;99.90;;;8.82;100.00;99742.66;4994037;28;20342;-63
2021/11/21 03:16:24;;;;;;;18.20;14.20;;;8.00;99.90;;;8.67;100.00;99746.69;4994389;28;20290;-63
2021/11/21 03:18:53;;;;;;;18.97;14.53;;;7.90;99.90;;;8.79;100.00;99737.72;4994246;28;20233;-63
2021/11/21 03:21:23;;;;;;;19.57;15.07;;;8.00;99.90;;;8.87;100.00;99737.47;4993944;28;20656;-62
2021/11/21 03:23:52;;;;;;;19.13;14.43;;;8.00;99.90;;;8.84;100.00;99740.59;4993625;28;20199;-63
2021/11/21 03:26:21;;;;;;;17.67;14.30;;;8.00;99.90;;;8.84;100.00;99735.22;4994121;28;20241;-63
2021/11/21 03:28:49;;;;;;;17.57;13.97;;;8.00;99.90;;;8.93;100.00;99728.50;4993921;28;20736;-62
2021/11/21 03:31:18;;;;;;;18.87;14.60;;;8.00;99.90;;;9.16;100.00;99733.28;4994105;28;20287;-63
2021/11/21 03:33:47;;;;;;;18.97;13.87;;;8.10;99.90;;;8.96;100.00;99735.31;4993938;28;20207;-62
2021/11/21 03:36:16;;;;;;;17.83;14.23;;;8.10;99.90;;;9.01;100.00;99736.31;4993630;28;20666;-62
2021/11/21 03:38:46;;;;;;;18.53;14.60;;;8.10;99.90;;;8.87;100.00;99732.09;4993764;28;20303;-63
2021/11/21 03:41:14;;;;;;;19.93;14.20;;;8.00;99.90;;;8.81;100.00;99741.00;4993845;28;20238;-62
2021/11/21 03:43:42;;;;;;;20.40;14.43;;;8.00;99.90;;;8.92;100.00;99737.63;4993464;28;20243;-62
2021/11/21 03:46:11;;;;;;;19.07;14.13;;;8.00;99.90;;;8.92;100.00;99736.78;4993052;28;20235;-63
2021/11/21 03:48:39;;;;;;;18.90;13.77;;;8.00;99.90;;;8.92;100.00;99724.19;4993800;28;20215;-62
2021/11/21 03:51:07;;;;;;;18.93;14.67;;;8.00;99.90;;;8.89;100.00;99724.63;4993700;28;20298;-63
2021/11/21 03:53:37;;;;;;;17.37;13.53;;;8.00;99.90;;;9.00;100.00;99723.09;4993492;28;20266;-62
2021/11/21 03:56:07;;;;;;;18.20;14.40;;;8.00;99.90;;;8.82;100.00;99715.81;4993796;28;20230;-62
2021/11/21 03:58:35;;;;;;;21.80;15.00;;;8.00;99.90;;;8.91;100.00;99714.50;4993467;28;20246;-62
2021/11/21 04:01:05;;;;;;;20.00;15.10;;;8.00;99.90;;;9.03;100.00;99715.41;4993501;28;20302;-62
2021/11/21 04:03:34;;;;;;;18.77;14.43;;;8.10;99.90;;;8.73;100.00;99714.41;4993153;28;20713;-62
2021/11/21 04:06:02;;;;;;;19.43;14.40;;;8.00;99.90;;;8.92;100.00;99708.06;4993529;28;20223;-62
2021/11/21 04:08:31;;;;;;;19.20;14.57;;;8.00;99.90;;;8.89;100.00;99697.78;4992997;28;20678;-62
2021/11/21 04:10:59;;;;;;;21.57;15.17;;;8.00;99.90;;;8.89;100.00;99689.72;4993367;28;20291;-62
2021/11/21 04:13:28;;;;;;;18.87;14.73;;;8.00;99.90;;;8.81;100.00;99691.84;4993061;28;20326;-61
2021/11/21 04:15:57;;;;;;;19.07;15.10;;;8.00;99.90;;;8.84;100.00;99694.94;4993227;28;20318;-62
2021/11/21 04:18:25;;;;;;;19.20;14.57;;;8.00;99.90;;;9.00;100.00;99688.97;4992781;28;20644;-62
2021/11/21 04:20:53;;;;;;;18.57;14.87;;;8.10;99.90;;;8.87;100.00;99689.09;4993392;28;20253;-62
2021/11/21 04:23:22;;;;;;;19.30;14.63;;;8.00;99.90;;;8.90;100.00;99687.84;4992720;28;20207;-62
2021/11/21 04:25:50;;;;;;;18.70;14.70;;;8.10;99.90;;;8.89;100.00;99683.50;4992786;28;20286;-62
2021/11/21 04:28:19;;;;;;;19.67;14.73;;;8.00;99.90;;;8.86;100.00;99676.75;4993008;28;20199;-62
2021/11/21 04:30:48;;;;;;;17.23;13.33;;;8.00;99.90;;;8.72;100.00;99669.81;4993014;28;20290;-62
2021/11/21 04:33:17;;;;;;;18.00;14.10;;;8.00;99.90;;;8.92;100.00;99659.72;4992425;28;20306;-62
2021/11/21 04:35:45;;;;;;;19.70;14.43;;;8.00;99.90;;;8.91;100.00;99655.41;4992271;28;20215;-61
2021/11/21 04:38:13;;;;;;;18.53;14.20;;;8.00;99.90;;;9.11;100.00;99652.50;4992651;28;20235;-61
2021/11/21 04:40:42;;;;;;;20.60;14.47;;;8.10;99.90;;;8.98;100.00;99648.09;4992822;28;20294;-62
2021/11/21 04:43:12;;;;;;;17.37;14.00;;;8.10;99.90;;;8.92;100.00;99645.47;4992378;28;20210;-62
2021/11/21 04:45:40;;;;;;;19.00;14.27;;;8.10;99.90;;;8.91;100.00;99647.34;4993298;28;20290;-63
2021/11/21 04:48:10;;;;;;;21.00;14.90;;;8.00;99.90;;;9.08;100.00;99642.22;4992551;28;20203;-62
2021/11/21 04:50:39;;;;;;;17.63;14.17;;;8.10;99.90;;;8.91;100.00;99641.16;4992563;28;20250;-63
2021/11/21 04:53:08;;;;;;;21.53;14.50;;;8.00;99.90;;;8.91;100.00;99636.59;4992160;28;20294;-62
2021/11/21 04:55:37;;;;;;;17.93;14.37;;;8.00;99.90;;;8.90;100.00;99629.56;4992426;28;20223;-62
2021/11/21 04:58:06;;;;;;;20.13;14.87;;;8.00;99.90;;;8.93;100.00;99641.75;4992178;28;20239;-62
2021/11/21 05:00:34;;;;;;;19.80;15.00;;;8.10;99.90;;;8.89;100.00;99633.31;4992160;28;20246;-62
2021/11/21 05:03:03;;;;;;;18.23;13.97;;;8.10;99.90;;;9.04;100.00;99652.59;4992445;28;20223;-62
2021/11/21 05:05:33;;;;;;;19.23;15.07;;;8.10;99.90;;;8.95;100.00;99642.31;4991902;28;20624;-61
2021/11/21 05:08:01;;;;;;;19.50;14.90;;;8.10;99.90;;;8.86;100.00;99638.31;4992063;28;20200;-62
2021/11/21 05:10:29;;;;;;;17.73;14.07;;;8.00;99.90;;;8.76;100.00;99636.09;4992067;28;20203;-63
2021/11/21 05:12:57;;;;;;;20.17;14.53;;;8.00;99.90;;;8.83;100.00;99639.56;4992099;28;20610;-62
2021/11/21 05:15:26;;;;;;;20.00;14.90;;;8.00;99.90;;;9.02;100.00;99638.53;4991635;28;20314;-61
2021/11/21 05:17:54;;;;;;;19.60;14.20;;;8.00;99.90;;;9.05;100.00;99639.97;4992158;28;20253;-62
2021/11/21 05:20:22;;;;;;;19.70;14.43;;;8.10;99.90;;;8.96;100.00;99633.25;4991757;28;20646;-62
2021/11/21 05:22:52;;;;;;;22.50;14.70;;;8.10;99.90;;;8.93;100.00;99634.50;4991158;28;20717;-61
2021/11/21 05:25:21;;;;;;;21.03;14.93;;;8.10;99.90;;;8.87;100.00;99634.56;4991930;28;20243;-62
2021/11/21 05:27:49;;;;;;;20.00;14.27;;;8.00;99.90;;;8.92;100.00;99632.88;4991820;28;20195;-63
2021/11/21 05:30:20;;;;;;;20.63;15.03;;;8.10;99.90;;;8.98;100.00;99634.66;4991674;28;20743;-63
2021/11/21 05:32:49;;;;;;;19.30;14.07;;;8.10;99.90;;;9.04;100.00;99639.16;4991924;28;20190;-62
2021/11/21 05:35:19;;;;;;;20.53;14.60;;;8.10;99.90;;;8.90;100.00;99634.13;4991382;28;20318;-63
2021/11/21 05:37:50;;;;;;;20.13;15.27;;;8.10;99.90;;;8.99;100.00;99636.31;4991582;28;20235;-63
2021/11/21 05:40:21;;;;;;;20.10;14.73;;;8.00;99.90;;;8.91;100.00;99630.41;4991718;28;20219;-62
2021/11/21 05:42:49;;;;;;;19.63;15.20;;;8.00;99.90;;;8.91;100.00;99638.47;4991722;28;20283;-62
2021/11/21 05:45:18;;;;;;;19.87;15.23;;;8.00;99.90;;;8.87;100.00;99632.72;4991931;28;20199;-63
2021/11/21 05:47:46;;;;;;;19.37;14.63;;;8.00;99.90;;;9.03;100.00;99632.13;4990551;28;20235;-63
2021/11/21 05:50:16;;;;;;;21.10;14.87;;;8.00;99.90;;;8.92;100.00;99626.66;4991734;28;20301;-61
2021/11/21 05:52:47;;;;;;;19.43;14.60;;;8.00;99.90;;;8.95;100.00;99623.53;4991557;28;20211;-62
2021/11/21 05:55:19;;;;;;;21.40;15.13;;;8.00;99.90;;;8.98;100.00;99621.22;4991296;28;20191;-62
2021/11/21 05:57:50;;;;;;;18.73;14.00;;;8.00;99.90;;;9.01;100.00;99614.59;4991565;28;20289;-62
2021/11/21 06:00:23;;;;;;;21.73;15.50;;;8.10;99.90;;;8.96;100.00;99611.75;4991521;28;20188;-63
2021/11/21 06:02:53;;;;;;;19.17;14.50;;;8.10;99.90;;;9.07;100.00;99619.88;4991606;28;20278;-62
2021/11/21 06:05:22;;;;;;;21.80;15.30;;;8.10;99.90;;;8.86;100.00;99620.34;4991813;28;20231;-62
2021/11/21 06:07:51;;;;;;;17.90;13.67;;;8.10;99.90;;;9.11;100.00;99621.09;4991155;28;20295;-62
2021/11/21 06:10:20;;;;;;;19.03;14.33;;;8.10;99.90;;;8.96;100.00;99623.34;4991105;28;20695;-62
2021/11/21 06:12:49;;;;;;;19.43;14.50;;;8.10;99.90;;;9.05;100.00;99618.50;4991309;28;20287;-63
2021/11/21 06:15:18;;;;;;;19.30;14.63;;;8.10;99.90;;;8.77;100.00;99610.91;4990640;28;20732;-63
2021/11/21 06:17:46;;;;;;;18.47;14.53;;;8.10;99.90;;;8.84;100.00;99609.00;4991458;28;20243;-61
2021/11/21 06:20:14;;;;;;;19.80;14.47;;;8.10;99.90;;;8.82;100.00;99607.56;4991508;28;20286;-62
2021/11/21 06:22:43;;;;;;;21.83;14.63;;;8.00;99.90;;;9.05;100.00;99605.84;4991120;28;20290;-62
2021/11/21 06:25:13;;;;;;;19.50;14.67;;;8.00;99.90;;;9.15;100.00;99600.78;4991586;28;20302;-63
2021/11/21 06:27:42;;;;;;;19.97;14.13;;;8.10;99.90;;;9.08;100.00;99600.03;4991297;28;20206;-63
2021/11/21 06:30:13;;;;;;;18.90;14.63;;;8.20;99.90;;;9.09;100.00;99590.09;4991074;28;20253;-62
2021/11/21 06:32:42;;;;;;;20.67;13.60;;;8.10;99.90;;;9.15;100.00;99583.88;4991252;28;20231;-62
2021/11/21 06:35:12;;;;;;;20.40;15.40;;;8.20;99.90;;;8.96;100.00;99595.63;4991164;28;20247;-63
2021/11/21 06:37:40;;;;;;;17.87;13.20;;;8.10;99.90;;;8.74;100.00;99587.19;4990983;28;20223;-63
2021/11/21 06:40:09;;;;;;;20.10;14.50;;;8.00;99.90;;;8.77;100.00;99586.75;4991317;28;20227;-62
2021/11/21 06:42:38;;;;;;;20.27;14.53;;;8.00;99.90;;;8.85;100.00;99583.75;4990855;28;20204;-62
2021/11/21 06:45:07;;;;;;;19.60;13.93;;;8.00;99.90;;;8.87;100.00;99589.72;4991197;28;20238;-63
2021/11/21 06:47:39;;;;;;;20.40;14.30;;;8.00;99.90;;;8.82;100.00;99594.13;4990857;28;20621;-62
2021/11/21 06:50:11;;;;;;;21.23;13.77;;;8.10;99.90;;;8.82;100.00;99594.13;4991130;28;20219;-63
2021/11/21 06:52:42;;;;;;;18.70;13.67;;;8.00;99.90;;;9.00;100.00;99586.09;4991031;28;20219;-62
2021/11/21 06:55:13;;;;;;;20.13;13.57;;;8.00;99.90;;;9.09;100.00;99580.19;4991326;28;20207;-63
2021/11/21 06:57:42;;;;;;;21.57;15.37;;;8.00;99.90;;;9.06;100.00;99580.66;4991716;28;20247;-62
2021/11/21 07:00:15;;;;;;;19.93;14.23;;;8.00;99.90;;;8.73;100.00;99579.38;4994311;28;20202;-62
2021/11/21 07:02:45;;;;;;;19.27;14.30;;;7.90;99.90;;;8.88;100.00;99591.38;4994219;28;20631;-61
2021/11/21 07:05:14;;;;;;;18.17;13.17;;;7.90;99.90;;;8.66;100.00;99583.97;4994479;28;20215;-62
2021/11/21 07:07:43;;;;;;;20.90;14.70;;;7.80;99.90;;;8.97;100.00;99578.47;4994353;28;20238;-62
2021/11/21 07:10:13;;;;;;;20.27;14.03;;;7.90;99.90;;;8.82;100.00;99575.31;4994438;28;20281;-62
2021/11/21 07:12:41;;;;;;;19.27;14.53;;;7.90;99.90;;;8.83;100.00;99577.78;4994029;28;20239;-61
2021/11/21 07:15:15;;;;;;;20.83;14.67;;;7.90;99.90;;;8.88;100.00;99583.31;4994886;28;20239;-62
2021/11/21 07:17:49;;;;;;;19.43;14.67;;;7.90;99.90;;;8.79;100.00;99573.91;4994852;28;20771;-62
2021/11/21 07:20:17;;;;;;;21.00;15.17;;;7.90;99.90;;;8.71;100.00;99578.75;4995161;28;20198;-62
2021/11/21 07:22:49;;;;;;;19.73;13.93;;;7.90;99.90;;;8.75;100.00;99582.63;4994981;28;20203;-62
2021/11/21 07:25:20;;;;;;;20.10;13.23;;;7.90;99.90;;;8.70;100.00;99585.16;4995041;28;20186;-62
2021/11/21 07:27:49;;;;;;;21.73;14.47;;;7.90;99.90;;;8.91;100.00;99590.94;4994999;28;20219;-62
2021/11/21 07:30:21;;;;;;;21.00;14.83;;;7.90;99.90;;;8.78;100.00;99590.25;4994706;28;20263;-63
2021/11/21 07:32:51;;;;;;;21.43;14.67;;;7.90;99.90;;;8.86;100.00;99593.47;4994886;28;20642;-63
2021/11/21 07:35:23;;;;;;;21.60;14.33;;;7.90;99.90;;;8.90;100.00;99596.50;4994679;28;20442;-63
2021/11/21 07:37:52;;;;;;;19.93;14.03;;;7.90;99.90;;;8.71;100.00;99601.03;4994681;28;20250;-62
2021/11/21 07:40:21;;;;;;;21.20;14.87;;;7.90;99.90;;;8.80;100.00;99602.41;4994456;28;20714;-62
2021/11/21 07:42:54;;;;;;;21.83;15.13;;;7.80;99.90;;;8.89;100.00;99603.78;4994753;28;20188;-63
2021/11/21 07:45:23;;;;;;;19.10;13.90;;;7.80;99.90;;;8.89;100.00;99598.41;4994298;28;20223;-63
2021/11/21 07:47:53;;;;;;;18.97;13.57;;;7.80;99.90;;;8.62;100.00;99602.38;4994588;28;20250;-62
2021/11/21 07:50:22;;;;;;;19.23;14.00;;;7.80;99.90;;;8.85;100.00;99601.72;4994807;28;20231;-62
2021/11/21 07:52:50;;;;;;;18.73;13.50;;;7.80;99.90;;;8.66;100.00;99597.41;4994165;28;20294;-63
2021/11/21 07:55:19;;;;;;;20.83;13.87;;;7.80;99.90;;;8.71;100.00;99603.72;4994020;28;20302;-63
2021/11/21 07:57:48;;;;;;;20.43;14.03;;;7.90;99.90;;;8.63;100.00;99602.16;4994163;28;20315;-63
2021/11/21 08:00:18;;;;;;;18.53;13.63;;;7.80;99.90;;;8.53;100.00;99606.38;4994321;28;20282;-63
2021/11/21 08:02:46;;;;;;;17.87;12.87;;;7.80;99.90;;;8.55;100.00;99601.63;4994378;28;20290;-62
2021/11/21 08:05:16;;;;;;;19.03;13.63;;;7.80;99.90;;;8.62;100.00;99605.06;4994354;28;20294;-63
2021/11/21 08:07:45;;;;;;;20.40;13.80;;;7.80;99.90;;;8.59;100.00;99600.94;4994111;28;20249;-63
2021/11/21 08:10:13;;;;;;;16.87;12.70;;;7.80;99.90;;;8.73;100.00;99600.84;4993272;28;20299;-62
2021/11/21 08:12:42;;;;;;;20.53;14.40;;;7.90;99.90;;;8.71;100.00;99608.28;4994217;28;20278;-62
2021/11/21 08:15:11;;;;;;;19.30;14.60;;;7.80;99.90;;;8.97;100.00;99600.78;4993621;28;20722;-63
2021/11/21 08:17:39;;;;;;;18.97;13.40;;;7.90;99.90;;;8.93;100.00;99602.25;4993925;28;20219;-62
2021/11/21 08:20:10;;;;;;;20.20;14.27;;;7.90;99.90;;;8.70;100.00;99602.09;4994020;28;20213;-62
2021/11/21 08:22:41;;;;;;;18.63;13.60;;;7.90;99.90;;;8.73;100.00;99593.59;4993844;28;20224;-62
2021/11/21 08:25:11;;;;;;;22.00;13.77;;;7.90;99.90;;;8.94;100.00;99603.09;4993779;28;20190;-63
2021/11/21 08:27:41;;;;;;;22.03;14.20;;;8.00;99.90;;;8.89;100.00;99611.00;4993722;28;20271;-64
2021/11/21 08:30:10;;;;;;;19.13;14.03;;;8.00;99.90;;;8.93;100.00;99602.25;4993554;28;20302;-63
2021/11/21 08:32:39;;;;;;;19.27;13.30;;;7.90;99.90;;;9.02;100.00;99600.09;4993465;28;20249;-64
2021/11/21 08:35:08;;;;;;;19.67;14.40;;;8.00;99.90;;;8.91;100.00;99600.84;4993792;28;20231;-62
2021/11/21 08:37:39;;;;;;;21.27;14.83;;;7.90;99.90;;;8.81;100.00;99595.97;4993402;28;20736;-63
2021/11/21 08:40:10;;;;;;;19.23;13.83;;;7.90;99.90;;;8.94;100.00;99598.56;4993847;28;20298;-63
2021/11/21 08:42:39;;;;;;;21.53;13.80;;;8.00;99.90;;;9.08;100.00;99600.03;4993889;28;20223;-65
2021/11/21 08:45:12;;;;;;;19.63;13.77;;;8.00;99.90;;;9.12;100.00;99595.03;4993687;28;20443;-63
2021/11/21 08:47:41;;;;;;;20.63;14.47;;;8.00;99.90;;;8.88;100.00;99585.19;4993643;28;20227;-63
2021/11/21 08:50:11;;;;;;;18.23;13.47;;;8.10;99.90;;;8.98;100.00;99588.97;4993460;28;20203;-62
2021/11/21 08:52:44;;;;;;;19.57;14.13;;;8.00;99.90;;;9.06;100.00;99598.63;4993212;28;20639;-62
2021/11/21 08:55:13;;;;;;;21.13;13.90;;;8.10;99.90;;;9.20;100.00;99587.50;4993763;28;20203;-63
2021/11/21 08:57:42;;;;;;;20.03;14.30;;;8.10;99.90;;;9.21;100.00;99588.31;4993342;28;20319;-63
2021/11/21 09:00:12;;;;;;;21.30;14.27;;;8.10;99.90;;;9.23;100.00;99581.69;4993355;28;20294;-64
2021/11/21 09:02:42;;;;;;;19.43;13.83;;;8.20;99.90;;;9.17;100.00;99587.13;4993332;28;20188;-63
2021/11/21 09:05:12;;;;;;;19.53;13.93;;;8.10;99.90;;;9.12;100.00;99584.28;4993210;28;20379;-63
2021/11/21 09:07:45;;;;;;;19.77;13.97;;;8.20;99.90;;;9.02;100.00;99589.34;4993137;28;20306;-64
2021/11/21 09:10:17;;;;;;;18.30;14.17;;;8.20;99.90;;;9.06;100.00;99585.19;4992953;28;20655;-63
2021/11/21 09:12:47;;;;;;;20.00;14.37;;;8.20;99.90;;;9.17;100.00;99585.25;4992828;28;20191;-63
2021/11/21 09:15:20;;;;;;;18.03;13.43;;;8.20;99.90;;;9.22;100.00;99585.41;4992578;28;20231;-62
2021/11/21 09:17:52;;;;;;;19.10;14.00;;;8.30;99.90;;;9.20;100.00;99578.63;4993020;28;20235;-64
2021/11/21 09:20:23;;;;;;;19.47;13.80;;;8.30;99.90;;;9.33;100.00;99589.22;4992999;28;20223;-63
2021/11/21 09:22:54;;;;;;;19.73;14.23;;;8.40;99.90;;;9.42;100.00;99583.28;4992411;28;20671;-64
2021/11/21 09:25:24;;;;;;;20.30;13.80;;;8.40;99.90;;;9.18;100.00;99588.78;4992955;28;20275;-62
2021/11/21 09:27:53;;;;;;;19.93;14.33;;;8.40;99.90;;;9.30;100.00;99593.16;4992652;28;20282;-63
2021/11/21 09:30:22;;;;;;;19.53;14.17;;;8.40;99.90;;;9.48;100.00;99579.72;4992214;28;20199;-63
2021/11/21 09:32:51;;;;;;;18.20;13.23;;;8.40;99.90;;;9.61;100.00;99586.78;4992986;28;20229;-62
2021/11/21 09:35:22;;;;;;;20.50;14.20;;;8.50;99.90;;;9.74;100.00;99573.97;4992707;28;20242;-63
2021/11/21 09:37:52;;;;;;;17.80;13.20;;;8.60;99.90;;;9.66;100.00;99570.78;4992566;28;20667;-62
2021/11/21 09:40:20;;;;;;;19.80;13.43;;;8.60;99.90;;;9.75;100.00;99564.88;4992593;28;20282;-63
2021/11/21 09:42:49;;;;;;;19.47;14.03;;;8.60;99.90;;;9.67;100.00;99559.78;4992223;28;20663;-62
2021/11/21 09:45:19;;;;;;;18.33;14.00;;;8.60;99.90;;;9.93;100.00;99566.66;4992600;28;20237;-62
2021/11/21 09:47:54;;;;;;;21.43;13.80;;;8.70;99.90;;;9.83;100.00;99572.59;4992453;28;20298;-64
2021/11/21 09:50:30;;;;;;;19.80;12.80;;;8.70;99.90;;;9.81;100.00;99569.31;4992546;28;20190;-63
2021/11/21 09:53:00;;;;;;;19.20;12.83;;;8.80;99.90;;;9.98;100.00;99564.09;4992388;28;20202;-63
2021/11/21 09:55:28;;;;;;;18.07;12.63;;;8.80;99.90;;;9.98;100.00;99568.69;4992176;28;20226;-61
2021/11/21 09:57:57;;;;;;;19.53;12.93;;;8.80;99.90;;;9.88;100.00;99558.44;4992012;28;20227;-62
2021/11/21 10:00:28;;;;;;;18.33;12.73;;;8.90;99.90;;;10.01;100.00;99565.50;4992525;28;20234;-61
2021/11/21 10:03:03;;;;;;;17.63;13.00;;;8.90;99.90;;;10.15;100.00;99564.31;4992007;28;20230;-62
2021/11/21 10:05:35;;;;;;;18.40;12.17;;;8.90;99.90;;;10.00;100.00;99562.00;4992438;28;20217;-62
2021/11/21 10:08:09;;;;;;;18.03;12.53;;;9.00;99.90;;;10.00;100.00;99569.25;4992380;28;20192;-62
2021/11/21 10:10:41;;;;;;;17.47;12.97;;;9.00;99.90;;;10.28;100.00;99570.28;4991674;28;20223;-61
2021/11/21 10:13:34;;;;;;;16.57;12.67;;;9.10;99.90;;;10.24;100.00;99557.50;4990029;28;20235;-61
2021/11/21 10:16:27;;;;;;;18.53;12.93;;;9.20;99.90;;;10.40;100.00;99556.84;4992446;28;20238;-62
2021/11/21 10:18:59;;;;;;;15.23;11.20;;;9.20;99.90;;;10.45;100.00;99549.69;4992190;28;20215;-63
2021/11/21 10:21:31;;;;;;;16.57;12.20;;;9.20;99.90;;;10.54;100.00;99556.38;4992258;28;20192;-61
2021/11/21 10:24:23;;;;;;;16.50;11.60;;;9.20;99.90;;;10.38;100.00;99557.06;4991828;28;20207;-62